createdAt,value
2023-01-23T00:01:55.656Z,-1.69
2023-01-23T00:04:24.011Z,-1.91
2023-01-23T00:06:52.532Z,-1.54
2023-01-23T00:09:22.242Z,-1.81
2023-01-23T00:11:50.606Z,-1.48
2023-01-23T00:14:18.937Z,-1.50
2023-01-23T00:16:47.365Z,-1.51
2023-01-23T00:19:15.794Z,-1.46
2023-01-23T00:21:44.113Z,-1.35
2023-01-23T00:24:14.157Z,-1.38
2023-01-23T00:26:44.094Z,-1.64
2023-01-23T00:29:15.716Z,-1.35
2023-01-23T00:31:44.245Z,-1.42
2023-01-23T00:34:14.985Z,-1.46
2023-01-23T00:36:44.743Z,-1.22
2023-01-23T00:39:17.710Z,-1.39
2023-01-23T00:41:48.427Z,-1.35
2023-01-23T00:44:17.981Z,-1.48
2023-01-23T00:46:46.490Z,-1.45
2023-01-23T00:49:17.870Z,-1.35
2023-01-23T00:51:46.390Z,-1.33
2023-01-23T00:54:14.875Z,-1.67
2023-01-23T00:56:43.415Z,-1.43
2023-01-23T00:59:13.092Z,-1.45
2023-01-23T01:01:41.889Z,-1.54
2023-01-23T01:04:10.325Z,-1.37
2023-01-23T01:06:38.682Z,-1.46
2023-01-23T01:09:07.254Z,-1.62
2023-01-23T01:11:35.582Z,-1.45
2023-01-23T01:14:03.960Z,-1.38
2023-01-23T01:16:33.869Z,-1.51
2023-01-23T01:19:02.176Z,-1.62
2023-01-23T01:21:30.573Z,-1.34
2023-01-23T01:23:58.822Z,-1.37
2023-01-23T01:26:27.219Z,-1.34
2023-01-23T01:28:55.516Z,-1.41
2023-01-23T01:31:24.120Z,-1.46
2023-01-23T01:33:53.953Z,-1.49
2023-01-23T01:36:25.504Z,-1.45
2023-01-23T01:38:53.864Z,-1.38
2023-01-23T01:41:22.322Z,-1.67
2023-01-23T01:43:51.300Z,-1.22
2023-01-23T01:46:22.488Z,-1.53
2023-01-23T01:49:05.832Z,-1.42
2023-01-23T01:51:37.766Z,-1.37
2023-01-23T01:54:12.837Z,-1.29
2023-01-23T01:56:45.918Z,-1.27
2023-01-23T01:59:15.544Z,-1.41
2023-01-23T02:01:47.986Z,-1.41
2023-01-23T02:04:17.708Z,-1.40
2023-01-23T02:06:46.574Z,-1.39
2023-01-23T02:09:20.248Z,-1.37
2023-01-23T02:11:48.721Z,-1.39
2023-01-23T02:14:17.583Z,-1.28
2023-01-23T02:16:51.118Z,-1.27
2023-01-23T02:19:33.571Z,-1.27
2023-01-23T02:22:08.248Z,-1.38
2023-01-23T02:24:43.094Z,-1.26
2023-01-23T02:27:12.971Z,-1.25
2023-01-23T02:29:42.937Z,-1.13
2023-01-23T02:32:11.358Z,-1.13
2023-01-23T02:34:39.816Z,-1.11
2023-01-23T02:37:09.761Z,-1.10
2023-01-23T02:39:39.751Z,-1.23
2023-01-23T02:42:08.253Z,-1.30
2023-01-23T02:44:38.231Z,-1.49
2023-01-23T02:47:12.478Z,-1.34
2023-01-23T02:49:40.947Z,-1.50
2023-01-23T02:52:09.917Z,-1.69
2023-01-23T02:54:39.547Z,-1.51
2023-01-23T02:57:07.978Z,-1.46
2023-01-23T02:59:55.019Z,-1.43
2023-01-23T03:02:23.598Z,-1.45
2023-01-23T03:04:51.915Z,-1.41
2023-01-23T03:07:20.567Z,-1.34
2023-01-23T03:09:49.985Z,-1.22
2023-01-23T03:12:18.384Z,-1.27
2023-01-23T03:14:48.727Z,-1.34
2023-01-23T03:17:17.035Z,-1.35
2023-01-23T03:19:45.693Z,-1.30
2023-01-23T03:22:14.964Z,-1.27
2023-01-23T03:24:43.268Z,-1.40
2023-01-23T03:27:11.944Z,-1.20
2023-01-23T03:29:54.013Z,-1.25
2023-01-23T03:32:26.143Z,-1.28
2023-01-23T03:34:54.528Z,-1.60
2023-01-23T03:37:22.871Z,-1.16
2023-01-23T03:40:08.358Z,-1.33
2023-01-23T03:42:37.354Z,-1.32
2023-01-23T03:45:06.616Z,-1.19
2023-01-23T03:47:36.525Z,-1.15
2023-01-23T03:50:05.152Z,-1.35
2023-01-23T03:52:33.630Z,-1.18
2023-01-23T03:55:02.278Z,-1.08
2023-01-23T03:57:30.604Z,-1.11
2023-01-23T03:59:58.957Z,-1.12
2023-01-23T04:02:28.012Z,-1.13
2023-01-23T04:04:57.899Z,-1.32
2023-01-23T04:07:26.274Z,-1.06
2023-01-23T04:09:54.556Z,-1.02
2023-01-23T04:12:22.909Z,-0.99
2023-01-23T04:14:51.177Z,-0.97
2023-01-23T04:17:19.535Z,-1.03
2023-01-23T04:19:47.783Z,-1.12
2023-01-23T04:22:17.666Z,-1.08
2023-01-23T04:24:45.998Z,-1.15
2023-01-23T04:27:14.322Z,-1.15
2023-01-23T04:29:42.625Z,-1.23
2023-01-23T04:32:10.954Z,-1.24
2023-01-23T04:34:39.400Z,-1.27
2023-01-23T04:37:07.866Z,-1.33
2023-01-23T04:39:37.609Z,-1.23
2023-01-23T04:42:05.981Z,-1.36
2023-01-23T04:44:34.364Z,-1.40
2023-01-23T04:47:02.754Z,-1.42
2023-01-23T04:49:31.108Z,-1.61
2023-01-23T04:51:59.469Z,-1.48
2023-01-23T04:54:27.878Z,-1.54
2023-01-23T04:56:57.999Z,-1.56
2023-01-23T04:59:26.359Z,-1.45
2023-01-23T05:01:54.746Z,-1.44
2023-01-23T05:04:23.129Z,-1.54
2023-01-23T05:06:51.468Z,-1.54
2023-01-23T05:09:19.793Z,-1.59
2023-01-23T05:11:48.082Z,-1.51
2023-01-23T05:14:17.941Z,-1.48
2023-01-23T05:16:46.295Z,-1.42
2023-01-23T05:19:15.017Z,-1.47
2023-01-23T05:21:43.507Z,-1.54
2023-01-23T05:24:11.894Z,-1.50
2023-01-23T05:26:40.294Z,-1.47
2023-01-23T05:29:08.613Z,-1.47
2023-01-23T05:31:38.506Z,-1.62
2023-01-23T05:34:06.811Z,-1.49
2023-01-23T05:36:35.192Z,-1.48
2023-01-23T05:39:03.485Z,-1.39
2023-01-23T05:41:31.883Z,-1.36
2023-01-23T05:44:00.135Z,-1.32
2023-01-23T05:46:28.547Z,-1.32
2023-01-23T05:48:58.417Z,-1.32
2023-01-23T05:51:31.748Z,-1.25
2023-01-23T05:54:00.195Z,-1.32
2023-01-23T05:56:29.222Z,-1.35
2023-01-23T05:58:57.890Z,-1.32
2023-01-23T06:01:26.647Z,-1.30
2023-01-23T06:03:55.395Z,-1.26
2023-01-23T06:06:25.254Z,-1.32
2023-01-23T06:08:53.489Z,-1.22
2023-01-23T06:11:21.845Z,-1.53
2023-01-23T06:13:50.249Z,-1.19
2023-01-23T06:16:18.612Z,-1.13
2023-01-23T06:18:46.995Z,-1.41
2023-01-23T06:21:18.459Z,-1.26
2023-01-23T06:23:48.281Z,-1.37
2023-01-23T06:26:17.085Z,-1.35
2023-01-23T06:28:45.413Z,-1.37
2023-01-23T06:31:13.990Z,-1.48
2023-01-23T06:33:42.303Z,-1.64
2023-01-23T06:36:11.710Z,-1.86
2023-01-23T06:38:39.987Z,-1.36
2023-01-23T06:41:10.188Z,-1.46
2023-01-23T06:43:38.496Z,-1.47
2023-01-23T06:46:09.537Z,-1.67
2023-01-23T06:48:38.457Z,-1.45
2023-01-23T06:51:07.729Z,-1.51
2023-01-23T06:53:36.169Z,-1.30
2023-01-23T06:56:05.562Z,-1.32
2023-01-23T06:58:38.858Z,-1.36
2023-01-23T07:01:11.877Z,-1.67
2023-01-23T07:03:40.949Z,-1.64
2023-01-23T07:06:09.748Z,-1.44
2023-01-23T07:08:38.455Z,-1.35
2023-01-23T07:11:07.320Z,-1.43
2023-01-23T07:13:37.231Z,-1.43
2023-01-23T07:16:06.248Z,-1.44
2023-01-23T07:18:36.140Z,-1.40
2023-01-23T07:21:06.952Z,-1.38
2023-01-23T07:23:36.089Z,-1.41
2023-01-23T07:26:09.594Z,-1.59
2023-01-23T07:28:40.323Z,-1.26
2023-01-23T07:31:08.926Z,-1.31
2023-01-23T07:33:37.284Z,-1.34
2023-01-23T07:36:07.428Z,-1.42
2023-01-23T07:38:36.080Z,-1.39
2023-01-23T07:41:04.529Z,-1.44
2023-01-23T07:43:32.807Z,-1.29
2023-01-23T07:46:02.773Z,-1.18
2023-01-23T07:48:31.114Z,-1.32
2023-01-23T07:51:04.181Z,-1.21
2023-01-23T07:53:32.543Z,-1.06
2023-01-23T07:56:02.446Z,-1.14
2023-01-23T07:58:30.714Z,-1.12
2023-01-23T08:00:59.167Z,-1.11
2023-01-23T08:03:30.225Z,-1.03
2023-01-23T08:05:59.844Z,-1.02
2023-01-23T08:08:28.092Z,-0.87
2023-01-23T08:10:56.511Z,-0.79
2023-01-23T08:13:24.852Z,-1.00
2023-01-23T08:15:53.557Z,-1.03
2023-01-23T08:18:21.920Z,-1.04
2023-01-23T08:20:56.184Z,-1.00
2023-01-23T08:23:26.765Z,-1.00
2023-01-23T08:25:55.309Z,-0.99
2023-01-23T08:28:24.456Z,-1.02
2023-01-23T08:30:53.665Z,-1.10
2023-01-23T08:33:22.980Z,-0.93
2023-01-23T08:35:52.005Z,-0.92
2023-01-23T08:38:22.239Z,-0.96
2023-01-23T08:40:52.879Z,-1.01
2023-01-23T08:43:21.405Z,-0.84
2023-01-23T08:45:51.564Z,-0.83
2023-01-23T08:48:20.524Z,-0.74
2023-01-23T08:50:48.969Z,-0.93
2023-01-23T08:53:17.638Z,-0.78
2023-01-23T08:55:47.456Z,-0.92
2023-01-23T08:58:15.795Z,-0.83
2023-01-23T09:00:44.223Z,-0.85
2023-01-23T09:03:12.602Z,-0.87
2023-01-23T09:05:40.881Z,-0.90
2023-01-23T09:08:09.244Z,-0.86
2023-01-23T09:10:38.084Z,-0.86
2023-01-23T09:13:07.911Z,-0.83
2023-01-23T09:15:36.649Z,-0.74
2023-01-23T09:18:05.063Z,-0.93
2023-01-23T09:20:33.452Z,-0.90
2023-01-23T09:23:01.789Z,-0.95
2023-01-23T09:25:31.426Z,-1.12
2023-01-23T09:27:59.748Z,-1.21
2023-01-23T09:30:29.738Z,-1.17
2023-01-23T09:32:58.069Z,-1.04
2023-01-23T09:35:26.378Z,-0.90
2023-01-23T09:38:06.893Z,-0.86
2023-01-23T09:40:38.655Z,-0.84
2023-01-23T09:43:15.253Z,-1.02
2023-01-23T09:45:48.109Z,-1.02
2023-01-23T09:48:22.687Z,-1.07
2023-01-23T09:50:57.779Z,-0.97
2023-01-23T09:53:32.091Z,-0.99
2023-01-23T09:56:04.524Z,-0.84
2023-01-23T09:58:38.855Z,-0.84
2023-01-23T10:01:12.757Z,-0.72
2023-01-23T10:03:41.458Z,-0.71
2023-01-23T10:06:22.768Z,-0.72
2023-01-23T10:09:22.001Z,-0.69
2023-01-23T10:11:58.949Z,-0.60
2023-01-23T10:14:51.237Z,-0.68
2023-01-23T10:17:31.268Z,-0.79
2023-01-23T10:20:19.426Z,-0.64
2023-01-23T10:22:53.097Z,-0.79
2023-01-23T10:25:23.379Z,-0.85
2023-01-23T10:27:52.910Z,-0.80
2023-01-23T10:30:29.037Z,-0.95
2023-01-23T10:33:02.353Z,-1.00
2023-01-23T10:35:38.118Z,-0.83
2023-01-23T10:38:26.862Z,-0.98
2023-01-23T10:41:12.440Z,-1.21
2023-01-23T10:43:42.114Z,-1.12
2023-01-23T10:46:13.840Z,-0.83
2023-01-23T10:48:48.609Z,-0.87
2023-01-23T10:51:28.318Z,-0.73
2023-01-23T10:54:30.212Z,-0.54
2023-01-23T10:57:01.390Z,-0.51
2023-01-23T10:59:34.508Z,-0.57
2023-01-23T11:02:20.766Z,-0.64
2023-01-23T11:04:53.184Z,-0.76
2023-01-23T11:07:24.659Z,-0.87
2023-01-23T11:09:56.908Z,-0.71
2023-01-23T11:12:26.851Z,-0.66
2023-01-23T11:15:13.677Z,-0.93
2023-01-23T11:17:43.840Z,-1.17
2023-01-23T11:20:25.771Z,-0.73
2023-01-23T11:23:17.013Z,-0.66
2023-01-23T11:25:47.425Z,-0.59
2023-01-23T11:28:23.764Z,-0.67
2023-01-23T11:31:11.604Z,-0.64
2023-01-23T11:33:51.905Z,-0.62
2023-01-23T11:36:38.304Z,-0.72
2023-01-23T11:39:17.108Z,-0.57
2023-01-23T11:41:47.570Z,-0.82
2023-01-23T11:44:21.087Z,-0.71
2023-01-23T11:47:17.300Z,-0.67
2023-01-23T11:50:07.099Z,-0.75
2023-01-23T11:52:49.661Z,-0.58
2023-01-23T11:55:56.082Z,-0.42
2023-01-23T11:58:49.501Z,-0.47
2023-01-23T12:01:24.329Z,-0.50
2023-01-23T12:04:30.719Z,-0.47
2023-01-23T12:07:09.554Z,-0.96
2023-01-23T12:09:46.669Z,-0.54
2023-01-23T12:12:26.921Z,-0.61
2023-01-23T12:15:02.173Z,-0.90
2023-01-23T12:17:40.424Z,-0.68
2023-01-23T12:20:35.575Z,-0.62
2023-01-23T12:23:31.499Z,-0.43
2023-01-23T12:26:13.336Z,-0.51
2023-01-23T12:29:13.859Z,-0.62
2023-01-23T12:31:57.176Z,-0.99
2023-01-23T12:34:45.331Z,-0.73
2023-01-23T12:37:31.855Z,-0.64
2023-01-23T12:40:10.062Z,-0.73
2023-01-23T12:42:49.026Z,-0.72
2023-01-23T12:45:23.393Z,-0.71
2023-01-23T12:48:00.947Z,-0.67
2023-01-23T12:50:39.473Z,-1.01
2023-01-23T12:53:11.566Z,-0.64
2023-01-23T12:55:44.779Z,-0.63
2023-01-23T12:58:18.927Z,-0.54
2023-01-23T13:01:03.950Z,-0.53
2023-01-23T13:03:48.243Z,-0.67
2023-01-23T13:06:40.590Z,-0.61
2023-01-23T13:09:18.829Z,-0.47
2023-01-23T13:11:57.871Z,-0.40
2023-01-23T13:15:06.495Z,-0.27
2023-01-23T13:17:37.798Z,-0.38
2023-01-23T13:20:44.896Z,-0.29
2023-01-23T13:23:30.880Z,-0.16
2023-01-23T13:26:32.009Z,-0.22
2023-01-23T13:29:04.107Z,-0.45
2023-01-23T13:31:52.788Z,-0.15
2023-01-23T13:34:41.767Z,-0.21
2023-01-23T13:37:52.421Z,-0.12
2023-01-23T13:40:24.266Z,0.06
2023-01-23T13:42:52.986Z,-0.07
2023-01-23T13:45:34.955Z,0.07
2023-01-23T14:22:56.302Z,-0.31
2023-01-23T14:25:25.890Z,-0.29
2023-01-23T14:28:04.846Z,-0.29
2023-01-23T14:30:33.199Z,-0.26
2023-01-23T14:33:01.671Z,-0.57
2023-01-23T14:35:32.311Z,-0.68
2023-01-23T14:38:06.173Z,-0.67
2023-01-23T14:40:49.302Z,-0.67
2023-01-23T14:43:22.026Z,-0.63
2023-01-23T14:45:57.407Z,-0.86
2023-01-23T14:48:25.926Z,-0.49
2023-01-23T14:51:04.478Z,-0.68
2023-01-23T14:53:34.359Z,-0.64
2023-01-23T14:56:03.391Z,-0.66
2023-01-23T14:58:32.523Z,-0.73
2023-01-23T15:01:03.341Z,-1.31
2023-01-23T15:03:39.846Z,-0.83
2023-01-23T15:06:13.179Z,-0.81
2023-01-23T15:08:43.346Z,-0.72
2023-01-23T15:11:14.878Z,-0.87
2023-01-23T15:13:47.738Z,-0.62
2023-01-23T15:16:21.616Z,-0.67
2023-01-23T15:18:55.967Z,-0.54
2023-01-23T15:21:30.981Z,-0.94
2023-01-23T15:24:08.012Z,-0.95
2023-01-23T15:26:37.687Z,-1.24
2023-01-23T15:29:20.014Z,-0.78
2023-01-23T15:31:51.520Z,-0.98
2023-01-23T15:34:24.129Z,-1.01
2023-01-23T15:36:56.625Z,-0.89
2023-01-23T15:39:28.513Z,-0.95
2023-01-23T15:41:59.696Z,-0.96
2023-01-23T15:44:29.986Z,-0.92
2023-01-23T15:47:01.360Z,-0.93
2023-01-23T15:49:30.239Z,-0.89
2023-01-23T15:51:59.738Z,-0.83
2023-01-23T15:54:33.853Z,-0.77
2023-01-23T15:57:09.627Z,-1.35
2023-01-23T15:59:38.432Z,-0.89
2023-01-23T16:02:29.651Z,-0.96
2023-01-23T16:04:55.827Z,-0.83
2023-01-23T16:07:27.065Z,-0.78
2023-01-23T16:09:57.926Z,-0.67
2023-01-23T16:12:29.793Z,-0.58
2023-01-23T16:14:58.659Z,-1.18
2023-01-23T16:17:27.121Z,-0.96
2023-01-23T16:19:55.687Z,-0.97
2023-01-23T16:22:29.454Z,-0.74
2023-01-23T16:24:59.995Z,-1.18
2023-01-23T16:27:28.636Z,-1.13
2023-01-23T16:29:57.465Z,-1.18
2023-01-23T16:32:26.361Z,-1.19
2023-01-23T16:34:54.802Z,-0.91
2023-01-23T16:37:23.126Z,-0.94
2023-01-23T16:39:51.517Z,-1.18
2023-01-23T16:42:23.618Z,-1.06
2023-01-23T16:44:52.563Z,-0.96
2023-01-23T16:47:20.918Z,-1.00
2023-01-23T16:49:54.081Z,-1.05
2023-01-23T16:52:26.609Z,-1.06
2023-01-23T16:54:56.677Z,-1.10
2023-01-23T16:57:26.706Z,-0.93
2023-01-23T16:59:56.513Z,-1.13
2023-01-23T17:02:29.069Z,-1.20
2023-01-23T17:04:57.550Z,-0.90
2023-01-23T17:07:26.004Z,-1.01
2023-01-23T17:09:54.295Z,-1.15
2023-01-23T17:12:27.769Z,-1.25
2023-01-23T17:14:58.264Z,-1.23
2023-01-23T17:17:31.771Z,-1.25
2023-01-23T17:20:01.381Z,-1.51
2023-01-23T17:22:31.838Z,-1.25
2023-01-23T17:25:00.239Z,-1.05
2023-01-23T17:27:28.804Z,-1.14
2023-01-23T17:29:58.711Z,-1.20
2023-01-23T17:32:32.748Z,-1.19
2023-01-23T17:35:03.465Z,-1.06
2023-01-23T17:37:32.309Z,-1.32
2023-01-23T17:40:00.759Z,-1.29
2023-01-23T17:42:29.216Z,-1.29
2023-01-23T17:44:59.358Z,-1.18
2023-01-23T17:47:28.318Z,-1.26
2023-01-23T17:49:57.524Z,-1.14
2023-01-23T17:52:27.136Z,-1.14
2023-01-23T17:54:55.681Z,-1.03
2023-01-23T17:57:24.078Z,-1.12
2023-01-23T17:59:56.381Z,-1.17
2023-01-23T18:02:31.558Z,-1.25
2023-01-23T18:04:59.958Z,-1.19
2023-01-23T18:07:28.386Z,-1.14
2023-01-23T18:09:56.779Z,-0.94
2023-01-23T18:12:32.357Z,-1.01
2023-01-23T18:15:11.840Z,-1.25
2023-01-23T18:17:49.310Z,-1.04
2023-01-23T18:20:20.949Z,-1.81
2023-01-23T18:22:50.427Z,-1.12
2023-01-23T18:25:21.959Z,-1.15
2023-01-23T18:27:55.447Z,-1.21
2023-01-23T18:30:41.379Z,-1.22
2023-01-23T18:33:24.135Z,-1.22
2023-01-23T18:36:18.028Z,-1.21
2023-01-23T18:39:09.994Z,-1.14
2023-01-23T18:41:45.877Z,-1.00
2023-01-23T18:44:17.589Z,-1.07
2023-01-23T18:46:48.346Z,-0.97
2023-01-23T18:49:32.139Z,-1.04
2023-01-23T18:52:09.379Z,-0.97
2023-01-23T18:54:43.724Z,-0.99
2023-01-23T18:57:22.523Z,-1.12
2023-01-23T19:00:01.042Z,-1.06
2023-01-23T19:02:36.007Z,-0.94
2023-01-23T19:05:24.815Z,-0.89
2023-01-23T19:07:54.753Z,-0.96
2023-01-23T19:10:25.539Z,-1.21
2023-01-23T19:13:14.311Z,-1.08
2023-01-23T19:15:50.640Z,-0.96
2023-01-23T19:18:40.821Z,-0.86
2023-01-23T19:21:16.923Z,-1.17
2023-01-23T19:23:52.945Z,-0.79
2023-01-23T19:26:23.314Z,-0.78
2023-01-23T19:28:52.690Z,-0.93
2023-01-23T19:31:23.564Z,-1.01
2023-01-23T19:33:52.536Z,-0.96
2023-01-23T19:36:23.324Z,-0.91
2023-01-23T19:38:52.691Z,-0.86
2023-01-23T19:41:23.192Z,-0.91
2023-01-23T19:43:54.435Z,-0.91
2023-01-23T19:46:27.543Z,-0.84
2023-01-23T19:48:58.368Z,-0.84
2023-01-23T19:51:31.366Z,-0.80
2023-01-23T19:54:01.550Z,-0.68
2023-01-23T19:56:31.302Z,-0.61
2023-01-23T19:59:01.258Z,-1.02
2023-01-23T20:01:41.276Z,-0.87
2023-01-23T20:04:16.527Z,-1.02
2023-01-23T20:06:49.620Z,-0.78
2023-01-23T20:09:19.811Z,-0.75
2023-01-23T20:11:49.822Z,-0.78
2023-01-23T20:14:19.592Z,-0.72
2023-01-23T20:16:49.466Z,-0.91
2023-01-23T20:19:19.376Z,-0.78
2023-01-23T20:21:50.918Z,-0.85
2023-01-23T20:24:20.861Z,-0.77
2023-01-23T20:26:50.465Z,-0.65
2023-01-23T20:29:20.055Z,-0.76
2023-01-23T20:31:49.754Z,-0.79
2023-01-23T20:34:19.607Z,-0.90
2023-01-23T20:36:51.023Z,-0.91
2023-01-23T20:39:20.671Z,-1.39
2023-01-23T20:41:49.785Z,-0.70
2023-01-23T20:44:18.112Z,-0.65
2023-01-23T20:46:47.088Z,-0.62
2023-01-23T20:49:15.684Z,-0.62
2023-01-23T20:51:44.797Z,-0.71
2023-01-23T20:54:14.952Z,-0.73
2023-01-23T20:56:44.133Z,-0.70
2023-01-23T20:59:21.571Z,-0.88
2023-01-23T21:02:07.013Z,-0.71
2023-01-23T21:04:36.702Z,-0.68
2023-01-23T21:07:05.979Z,-0.69
2023-01-23T21:09:35.742Z,-0.64
2023-01-23T21:12:05.645Z,-0.64
2023-01-23T21:14:34.791Z,-0.73
2023-01-23T21:17:05.509Z,-0.68
2023-01-23T21:19:34.844Z,-0.67
2023-01-23T21:22:06.123Z,-0.68
2023-01-23T21:24:36.566Z,-0.73
2023-01-23T21:27:06.488Z,-0.78
2023-01-23T21:29:35.730Z,-0.52
2023-01-23T21:32:04.299Z,-0.57
2023-01-23T21:34:32.758Z,-0.97
2023-01-23T21:37:01.165Z,-0.68
2023-01-23T21:39:29.590Z,-0.59
2023-01-23T21:41:59.448Z,-0.56
2023-01-23T21:44:27.830Z,-0.53
2023-01-23T21:46:56.591Z,-0.58
2023-01-23T21:49:25.282Z,-0.62
2023-01-23T21:51:53.638Z,-0.50
2023-01-23T21:54:22.201Z,-0.60
2023-01-23T21:56:50.523Z,-0.67
2023-01-23T21:59:20.279Z,-0.84
2023-01-23T22:01:47.619Z,-0.47
2023-01-23T22:04:18.558Z,-0.52
2023-01-23T22:06:47.778Z,-0.62
2023-01-23T22:09:18.531Z,-0.56
2023-01-23T22:11:48.237Z,-0.60
2023-01-23T22:14:17.072Z,-0.54
2023-01-23T22:16:49.374Z,-0.50
2023-01-23T22:19:20.097Z,-0.62
2023-01-23T22:21:49.395Z,-0.74
2023-01-23T22:24:17.778Z,-0.78
2023-01-23T22:26:46.176Z,-0.74
2023-01-23T22:29:15.119Z,-0.81
2023-01-23T22:31:43.851Z,-0.93
2023-01-23T22:34:13.570Z,-0.80
2023-01-23T22:36:42.073Z,-0.98
2023-01-23T22:39:14.389Z,-0.79
2023-01-23T22:41:42.811Z,-0.81
2023-01-23T22:44:14.047Z,-0.74
2023-01-23T22:46:42.494Z,-0.78
2023-01-23T22:49:10.910Z,-0.73
2023-01-23T22:51:40.830Z,-0.74
2023-01-23T22:54:09.256Z,-0.75
2023-01-23T22:56:37.785Z,-0.87
2023-01-23T22:59:06.107Z,-0.69
2023-01-23T23:01:34.519Z,-1.22
2023-01-23T23:04:03.093Z,-0.74
2023-01-23T23:06:31.494Z,-0.76
2023-01-23T23:09:01.583Z,-0.90
2023-01-23T23:11:30.327Z,-0.70
2023-01-23T23:13:59.672Z,-0.58
2023-01-23T23:16:31.120Z,-0.64
2023-01-23T23:19:01.891Z,-0.64
2023-01-23T23:21:33.395Z,-0.82
2023-01-23T23:24:04.433Z,-0.77
2023-01-23T23:26:33.308Z,-0.80
2023-01-23T23:29:02.279Z,-0.74
2023-01-23T23:31:31.205Z,-0.90
2023-01-23T23:33:59.689Z,-0.75
2023-01-23T23:36:28.337Z,-0.77
2023-01-23T23:38:56.727Z,-0.76
2023-01-23T23:41:26.808Z,-0.75
2023-01-23T23:43:55.161Z,-1.23
2023-01-23T23:46:23.526Z,-0.59
2023-01-23T23:48:51.859Z,-0.66
2023-01-23T23:51:22.932Z,-0.68
2023-01-23T23:53:51.691Z,-0.67
2023-01-23T23:56:23.064Z,-0.76
2023-01-23T23:58:52.971Z,-0.77
